createdAt,value
2022-07-29T00:01:43.283Z,101282.03
2022-07-29T00:04:12.496Z,101286.35
2022-07-29T00:06:41.411Z,101282.71
2022-07-29T00:09:09.381Z,101285.69
2022-07-29T00:11:37.403Z,101288.00
2022-07-29T00:14:05.224Z,101288.98
2022-07-29T00:16:33.006Z,101291.74
2022-07-29T00:19:02.464Z,101285.93
2022-07-29T00:21:30.614Z,101288.21
2022-07-29T00:23:58.384Z,101286.73
2022-07-29T00:26:28.785Z,101283.60
2022-07-29T00:29:30.819Z,101287.29
2022-07-29T00:31:44.450Z,101281.45
2022-07-29T00:34:31.461Z,101284.80
2022-07-29T00:36:59.335Z,101281.90
2022-07-29T00:39:27.529Z,101281.39
2022-07-29T00:41:55.510Z,101278.41
2022-07-29T00:44:23.197Z,101279.33
2022-07-29T00:46:51.097Z,101279.11
2022-07-29T00:49:19.276Z,101279.79
2022-07-29T00:51:49.536Z,101275.70
2022-07-29T00:54:17.639Z,101276.73
2022-07-29T00:56:45.914Z,101277.73
2022-07-29T00:59:13.701Z,101282.77
2022-07-29T01:01:41.555Z,101284.22
2022-07-29T01:04:09.502Z,101281.83
2022-07-29T01:06:37.480Z,101280.92
2022-07-29T01:09:05.817Z,101275.95
2022-07-29T01:11:35.043Z,101280.37
2022-07-29T01:14:03.637Z,101276.75
2022-07-29T01:16:33.918Z,101273.30
2022-07-29T01:19:33.310Z,101271.83
2022-07-29T01:22:28.754Z,101275.34
2022-07-29T01:25:29.486Z,101278.73
2022-07-29T01:28:18.423Z,101277.98
2022-07-29T01:30:50.440Z,101278.91
2022-07-29T01:33:41.332Z,101273.80
2022-07-29T01:36:14.410Z,101274.09
2022-07-29T01:38:45.371Z,101271.14
2022-07-29T01:41:18.879Z,101260.65
2022-07-29T01:43:54.838Z,101261.85
2022-07-29T01:46:31.770Z,101259.27
2022-07-29T01:49:09.854Z,101262.69
2022-07-29T01:51:47.294Z,101263.83
2022-07-29T01:54:43.936Z,101263.79
2022-07-29T01:57:18.575Z,101264.95
2022-07-29T01:59:48.687Z,101264.52
2022-07-29T02:02:19.405Z,101264.46
2022-07-29T02:04:52.091Z,101258.34
2022-07-29T02:07:22.875Z,101255.58
2022-07-29T02:09:52.712Z,101247.74
2022-07-29T02:12:22.032Z,101240.98
2022-07-29T02:14:53.832Z,101241.69
2022-07-29T02:17:40.923Z,101238.27
2022-07-29T02:20:10.237Z,101236.31
2022-07-29T02:22:40.915Z,101236.41
2022-07-29T02:25:13.844Z,101235.95
2022-07-29T02:27:43.724Z,101234.61
2022-07-29T02:30:13.724Z,101237.68
2022-07-29T02:32:43.377Z,101246.52
2022-07-29T02:35:15.174Z,101253.50
2022-07-29T02:37:45.849Z,101258.87
2022-07-29T02:40:16.257Z,101251.45
2022-07-29T02:42:47.516Z,101248.21
2022-07-29T02:45:15.266Z,101245.58
2022-07-29T02:47:48.800Z,101247.39
2022-07-29T02:50:21.420Z,101246.63
2022-07-29T02:52:58.530Z,101247.66
2022-07-29T02:55:31.563Z,101243.89
2022-07-29T02:58:03.060Z,101238.70
2022-07-29T03:00:35.865Z,101242.39
2022-07-29T03:03:08.597Z,101241.61
2022-07-29T03:05:36.394Z,101239.91
2022-07-29T03:08:10.138Z,101234.55
2022-07-29T03:10:41.762Z,101236.46
2022-07-29T03:13:11.332Z,101228.55
2022-07-29T03:15:39.970Z,101228.55
2022-07-29T03:18:09.235Z,101224.82
2022-07-29T03:20:38.966Z,101227.64
2022-07-29T03:23:08.779Z,101226.13
2022-07-29T03:25:36.712Z,101223.07
2022-07-29T03:28:04.802Z,101226.48
2022-07-29T03:30:32.621Z,101221.94
2022-07-29T03:33:00.415Z,101226.35
2022-07-29T03:35:28.611Z,101225.82
2022-07-29T03:37:56.321Z,101227.95
2022-07-29T03:40:29.353Z,101231.48
2022-07-29T03:42:58.800Z,101230.83
2022-07-29T03:45:27.867Z,101236.39
2022-07-29T03:48:04.744Z,101239.67
2022-07-29T03:50:34.252Z,101238.16
2022-07-29T03:53:03.094Z,101236.77
2022-07-29T03:55:37.518Z,101237.16
2022-07-29T03:58:07.786Z,101238.59
2022-07-29T04:00:37.518Z,101240.59
2022-07-29T04:03:06.329Z,101245.29
2022-07-29T04:05:40.224Z,101245.67
2022-07-29T04:08:08.001Z,101249.80
2022-07-29T04:10:36.501Z,101251.40
2022-07-29T04:13:04.352Z,101251.80
2022-07-29T04:15:32.151Z,101253.91
2022-07-29T04:18:00.481Z,101252.02
2022-07-29T04:20:28.506Z,101254.21
2022-07-29T04:22:56.506Z,101256.34
2022-07-29T04:25:24.304Z,101263.20
2022-07-29T04:28:01.217Z,101266.39
2022-07-29T04:30:30.969Z,101264.02
2022-07-29T04:32:59.279Z,101267.98
2022-07-29T04:35:27.344Z,101267.38
2022-07-29T04:37:55.274Z,101265.36
2022-07-29T04:40:23.553Z,101271.09
2022-07-29T04:42:51.429Z,101268.85
2022-07-29T04:45:22.290Z,101269.54
2022-07-29T04:47:51.006Z,101269.73
2022-07-29T04:50:18.952Z,101271.58
2022-07-29T04:52:46.760Z,101269.73
2022-07-29T04:55:14.443Z,101266.02
2022-07-29T04:57:42.639Z,101265.84
2022-07-29T05:00:11.188Z,101264.66
2022-07-29T05:02:39.341Z,101267.92
2022-07-29T05:05:07.864Z,101264.05
2022-07-29T05:07:36.044Z,101262.09
2022-07-29T05:10:04.938Z,101261.20
2022-07-29T05:12:32.823Z,101261.95
2022-07-29T05:15:00.959Z,101260.50
2022-07-29T05:17:28.894Z,101262.59
2022-07-29T05:19:56.888Z,101266.05
2022-07-29T05:22:24.718Z,101268.81
2022-07-29T05:24:52.629Z,101265.48
2022-07-29T05:27:20.555Z,101269.19
2022-07-29T05:29:48.590Z,101268.94
2022-07-29T05:32:16.806Z,101271.52
2022-07-29T05:34:50.955Z,101272.48
2022-07-29T05:37:21.014Z,101272.72
2022-07-29T05:39:56.394Z,101270.27
2022-07-29T05:42:25.765Z,101261.36
2022-07-29T05:44:54.268Z,101261.30
2022-07-29T05:47:22.605Z,101255.42
2022-07-29T05:49:50.533Z,101255.29
2022-07-29T05:52:18.357Z,101253.70
2022-07-29T05:54:46.093Z,101250.26
2022-07-29T05:57:18.976Z,101245.66
2022-07-29T05:59:47.328Z,101242.89
2022-07-29T06:02:15.791Z,101246.11
2022-07-29T06:04:44.673Z,101246.99
2022-07-29T06:07:12.447Z,101246.95
2022-07-29T06:09:40.354Z,101250.87
2022-07-29T06:12:08.125Z,101246.65
2022-07-29T06:14:36.697Z,101245.81
2022-07-29T06:17:05.727Z,101244.45
2022-07-29T06:19:36.604Z,101250.05
2022-07-29T06:22:05.268Z,101253.41
2022-07-29T06:24:33.245Z,101254.77
2022-07-29T06:27:01.317Z,101257.36
2022-07-29T06:29:29.108Z,101246.75
2022-07-29T06:31:56.792Z,101249.28
2022-07-29T06:34:24.807Z,101249.81
2022-07-29T06:36:53.896Z,101249.83
2022-07-29T06:39:22.392Z,101252.98
2022-07-29T06:41:51.607Z,101254.20
2022-07-29T06:44:19.853Z,101252.64
2022-07-29T06:46:50.281Z,101254.77
2022-07-29T06:49:18.391Z,101253.55
2022-07-29T06:51:46.319Z,101250.77
2022-07-29T06:54:14.750Z,101251.65
2022-07-29T06:56:44.199Z,101251.68
2022-07-29T06:59:13.521Z,101249.91
2022-07-29T07:01:43.543Z,101249.04
2022-07-29T07:04:13.267Z,101252.77
2022-07-29T07:06:41.389Z,101257.39
2022-07-29T07:09:09.279Z,101254.73
2022-07-29T07:11:37.171Z,101256.53
2022-07-29T07:14:04.994Z,101251.59
2022-07-29T07:16:33.666Z,101250.55
2022-07-29T07:19:02.262Z,101244.86
2022-07-29T07:21:31.176Z,101247.36
2022-07-29T07:24:00.401Z,101247.73
2022-07-29T07:26:28.654Z,101245.41
2022-07-29T07:28:56.550Z,101241.86
2022-07-29T07:31:24.436Z,101243.63
2022-07-29T07:33:54.586Z,101238.48
2022-07-29T07:36:23.507Z,101241.16
2022-07-29T07:38:51.423Z,101242.93
2022-07-29T07:41:19.441Z,101241.86
2022-07-29T07:43:47.432Z,101241.33
2022-07-29T07:46:15.923Z,101241.16
2022-07-29T07:48:43.879Z,101243.98
2022-07-29T07:51:11.748Z,101241.69
2022-07-29T07:53:39.541Z,101237.23
2022-07-29T07:56:10.989Z,101243.79
2022-07-29T07:58:40.292Z,101246.98
2022-07-29T08:01:09.432Z,101247.14
2022-07-29T08:03:37.986Z,101249.46
2022-07-29T08:06:06.724Z,101252.44
2022-07-29T08:08:34.819Z,101255.97
2022-07-29T08:11:09.105Z,101252.05
2022-07-29T08:13:39.068Z,101259.08
2022-07-29T08:16:16.501Z,101257.29
2022-07-29T08:18:45.973Z,101260.35
2022-07-29T08:21:15.725Z,101259.64
2022-07-29T08:23:58.668Z,101262.11
2022-07-29T08:26:28.037Z,101258.73
2022-07-29T08:28:56.148Z,101258.23
2022-07-29T08:31:24.222Z,101257.70
2022-07-29T08:33:52.038Z,101256.98
2022-07-29T08:36:22.011Z,101257.14
2022-07-29T08:38:50.675Z,101259.77
2022-07-29T08:41:20.251Z,101258.88
2022-07-29T08:43:49.816Z,101262.58
2022-07-29T08:46:18.673Z,101265.94
2022-07-29T08:48:47.257Z,101263.63
2022-07-29T08:51:22.889Z,101265.76
2022-07-29T08:53:51.615Z,101261.29
2022-07-29T08:56:21.593Z,101264.34
2022-07-29T08:58:52.370Z,101264.52
2022-07-29T09:01:36.014Z,101262.17
2022-07-29T09:04:10.734Z,101258.09
2022-07-29T09:06:43.797Z,101255.04
2022-07-29T09:09:14.694Z,101255.59
2022-07-29T09:11:44.008Z,101256.77
2022-07-29T09:14:14.121Z,101253.14
2022-07-29T09:16:53.616Z,101254.85
2022-07-29T09:19:32.664Z,101256.02
2022-07-29T09:22:03.454Z,101259.28
2022-07-29T09:24:35.383Z,101259.44
2022-07-29T09:27:07.210Z,101260.71
2022-07-29T09:29:36.447Z,101257.05
2022-07-29T09:32:09.499Z,101258.42
2022-07-29T09:34:38.038Z,101254.30
2022-07-29T09:37:06.492Z,101249.64
2022-07-29T09:39:46.620Z,101247.96
2022-07-29T09:42:16.692Z,101244.46
2022-07-29T09:44:50.174Z,101242.55
2022-07-29T09:47:19.787Z,101237.59
2022-07-29T09:50:01.225Z,101237.52
2022-07-29T09:52:31.044Z,101236.61
2022-07-29T09:55:09.691Z,101234.23
2022-07-29T09:57:37.463Z,101231.52
2022-07-29T10:00:09.601Z,101227.70
2022-07-29T10:02:39.348Z,101230.39
2022-07-29T10:05:18.555Z,101230.77
2022-07-29T10:07:53.876Z,101228.89
2022-07-29T10:10:23.403Z,101225.46
2022-07-29T10:12:57.041Z,101219.98
2022-07-29T10:15:27.307Z,101214.80
2022-07-29T10:17:56.887Z,101214.05
2022-07-29T10:20:26.730Z,101211.46
2022-07-29T10:22:55.220Z,101207.89
2022-07-29T10:25:24.442Z,101205.17
2022-07-29T10:27:53.458Z,101198.46
2022-07-29T10:30:24.264Z,101198.63
2022-07-29T10:33:33.906Z,101193.33
2022-07-29T10:36:26.072Z,101187.09
2022-07-29T10:39:07.261Z,101189.17
2022-07-29T10:41:51.102Z,101186.95
2022-07-29T10:44:24.046Z,101189.23
2022-07-29T10:46:53.447Z,101194.30
2022-07-29T10:49:25.092Z,101192.77
2022-07-29T10:52:06.073Z,101186.56
2022-07-29T10:54:37.134Z,101181.13
2022-07-29T10:57:18.820Z,101171.54
2022-07-29T10:59:55.614Z,101168.45
2022-07-29T11:02:42.718Z,101170.08
2022-07-29T11:05:22.288Z,101181.23
2022-07-29T11:08:10.047Z,101179.48
2022-07-29T11:10:41.735Z,101183.05
2022-07-29T11:13:12.655Z,101180.13
2022-07-29T11:15:58.751Z,101183.96
2022-07-29T11:18:26.588Z,101185.67
2022-07-29T11:20:55.319Z,101185.78
2022-07-29T11:23:28.210Z,101178.29
2022-07-29T11:26:12.778Z,101175.80
2022-07-29T11:29:20.906Z,101168.90
2022-07-29T11:31:57.550Z,101170.58
2022-07-29T11:34:38.068Z,101162.45
2022-07-29T11:37:12.617Z,101164.69
2022-07-29T11:40:00.299Z,101164.40
2022-07-29T11:42:34.214Z,101157.10
2022-07-29T11:45:43.574Z,101156.69
2022-07-29T11:48:28.913Z,101153.33
2022-07-29T11:50:54.601Z,101146.25
2022-07-29T11:53:22.848Z,101145.24
2022-07-29T11:55:56.374Z,101149.44
2022-07-29T11:58:27.323Z,101142.73
2022-07-29T12:00:56.241Z,101140.83
2022-07-29T12:03:33.581Z,101143.76
2022-07-29T12:06:13.578Z,101140.27
2022-07-29T12:08:46.201Z,101138.48
2022-07-29T12:11:22.998Z,101133.85
2022-07-29T12:13:52.797Z,101123.48
2022-07-29T12:16:29.160Z,101125.17
2022-07-29T12:19:02.907Z,101123.95
2022-07-29T12:21:53.656Z,101125.41
2022-07-29T12:24:26.835Z,101129.52
2022-07-29T12:27:00.124Z,101121.07
2022-07-29T12:29:33.765Z,101117.55
2022-07-29T12:32:14.902Z,101118.36
2022-07-29T12:34:47.936Z,101114.61
2022-07-29T12:37:15.892Z,101117.27
2022-07-29T12:39:44.220Z,101105.75
2022-07-29T12:42:18.392Z,101105.07
2022-07-29T12:44:48.935Z,101103.41
2022-07-29T12:47:19.318Z,101103.45
2022-07-29T12:49:47.932Z,101101.61
2022-07-29T12:52:29.371Z,101099.04
2022-07-29T12:54:57.486Z,101097.19
2022-07-29T12:57:25.521Z,101096.96
2022-07-29T13:00:12.548Z,101097.92
2022-07-29T13:02:43.534Z,101096.66
2022-07-29T13:05:13.837Z,101092.07
2022-07-29T13:07:55.050Z,101092.02
2022-07-29T13:10:26.206Z,101093.71
2022-07-29T13:13:15.199Z,101089.36
2022-07-29T13:15:47.964Z,101084.36
2022-07-29T13:18:33.062Z,101091.64
2022-07-29T13:21:15.497Z,101078.35
2022-07-29T13:23:44.258Z,101080.54
2022-07-29T13:26:12.699Z,101084.17
2022-07-29T13:28:43.952Z,101082.23
2022-07-29T13:31:12.301Z,101080.12
2022-07-29T13:33:40.035Z,101077.80
2022-07-29T13:36:07.875Z,101066.22
2022-07-29T13:38:35.727Z,101065.73
2022-07-29T13:41:03.997Z,101066.48
2022-07-29T13:43:33.418Z,101058.95
2022-07-29T13:46:01.237Z,101061.41
2022-07-29T13:48:29.195Z,101060.20
2022-07-29T13:50:57.776Z,101055.30
2022-07-29T13:53:26.890Z,101052.11
2022-07-29T13:55:56.150Z,101048.48
2022-07-29T13:58:24.260Z,101041.92
2022-07-29T14:00:52.323Z,101046.95
2022-07-29T14:03:20.184Z,101046.29
2022-07-29T14:05:47.901Z,101037.09
2022-07-29T14:08:16.200Z,101041.63
2022-07-29T14:10:44.163Z,101042.95
2022-07-29T14:13:19.677Z,101041.85
2022-07-29T14:15:53.915Z,101045.79
2022-07-29T14:18:21.953Z,101037.40
2022-07-29T14:20:50.610Z,101032.21
2022-07-29T14:23:20.191Z,101031.77
2022-07-29T14:25:49.383Z,101032.27
2022-07-29T14:28:17.918Z,101034.84
2022-07-29T14:30:45.771Z,101039.53
2022-07-29T14:33:13.945Z,101032.38
2022-07-29T14:35:41.651Z,101034.56
2022-07-29T14:38:09.563Z,101033.39
2022-07-29T14:40:37.532Z,101031.77
2022-07-29T14:43:05.414Z,101025.20
2022-07-29T14:45:33.223Z,101026.60
2022-07-29T14:48:01.449Z,101026.03
2022-07-29T14:50:31.723Z,101026.02
2022-07-29T14:53:01.289Z,101025.14
2022-07-29T14:55:29.552Z,101027.31
2022-07-29T14:58:07.789Z,101024.49
2022-07-29T15:00:38.737Z,101025.06
2022-07-29T15:03:07.034Z,101026.02
2022-07-29T15:05:40.006Z,101026.36
2022-07-29T15:08:09.244Z,101023.04
2022-07-29T15:10:37.444Z,101019.77
2022-07-29T15:13:05.456Z,101015.42
2022-07-29T15:15:33.262Z,101009.15
2022-07-29T15:18:01.142Z,101015.67
2022-07-29T15:20:28.928Z,101009.70
2022-07-29T15:22:57.329Z,101004.21
2022-07-29T15:25:25.656Z,101004.84
2022-07-29T15:28:01.197Z,101004.08
2022-07-29T15:30:33.482Z,101006.17
2022-07-29T15:33:05.233Z,101002.21
2022-07-29T15:35:40.534Z,101004.15
2022-07-29T15:38:08.820Z,101000.80
2022-07-29T15:40:40.045Z,100996.57
2022-07-29T15:43:08.386Z,100996.10
2022-07-29T15:45:41.296Z,100993.71
2022-07-29T15:48:10.330Z,100997.70
2022-07-29T15:50:43.048Z,100995.13
2022-07-29T15:53:15.356Z,100993.60
2022-07-29T15:55:43.147Z,100997.10
2022-07-29T15:58:12.609Z,100995.91
2022-07-29T16:00:40.530Z,100992.55
2022-07-29T16:03:08.572Z,100995.95
2022-07-29T16:05:36.284Z,100990.58
2022-07-29T16:08:05.972Z,100989.89
2022-07-29T16:10:34.004Z,100989.08
2022-07-29T16:13:02.166Z,100987.84
2022-07-29T16:15:30.097Z,100983.90
2022-07-29T16:17:58.017Z,100982.95
2022-07-29T16:20:25.788Z,100982.94
2022-07-29T16:22:54.441Z,100982.29
2022-07-29T16:25:29.572Z,100985.26
2022-07-29T16:28:08.531Z,100982.23
2022-07-29T16:30:36.507Z,100979.78
2022-07-29T16:33:08.227Z,100976.98
2022-07-29T16:35:40.194Z,100975.73
2022-07-29T16:38:08.251Z,100971.05
2022-07-29T16:40:36.873Z,100978.70
2022-07-29T16:43:04.723Z,100978.38
2022-07-29T16:45:45.155Z,100973.82
2022-07-29T16:48:15.034Z,100970.44
2022-07-29T16:50:46.322Z,100972.51
2022-07-29T16:53:14.179Z,100970.51
2022-07-29T16:55:42.724Z,100969.04
2022-07-29T16:58:12.092Z,100966.02
2022-07-29T17:00:40.026Z,100963.12
2022-07-29T17:03:07.826Z,100960.20
2022-07-29T17:05:52.099Z,100957.13
2022-07-29T17:08:23.272Z,100953.80
2022-07-29T17:10:51.133Z,100954.34
2022-07-29T17:13:19.180Z,100952.66
2022-07-29T17:15:47.167Z,100945.07
2022-07-29T17:18:15.029Z,100949.05
2022-07-29T17:20:42.777Z,100948.02
2022-07-29T17:23:10.519Z,100950.86
2022-07-29T17:25:38.246Z,100948.85
2022-07-29T17:28:06.059Z,100948.47
2022-07-29T17:30:33.858Z,100953.17
2022-07-29T17:33:01.627Z,100953.77
2022-07-29T17:35:47.751Z,100954.45
2022-07-29T17:38:15.560Z,100958.68
2022-07-29T17:40:43.466Z,100957.23
2022-07-29T17:43:11.385Z,100961.27
2022-07-29T17:45:48.950Z,100961.39
2022-07-29T17:48:19.904Z,100965.39
2022-07-29T17:50:48.636Z,100967.88
2022-07-29T17:53:17.058Z,100966.06
2022-07-29T17:55:45.815Z,100967.58
2022-07-29T17:58:13.672Z,100971.59
2022-07-29T18:00:42.435Z,100968.63
2022-07-29T18:03:10.514Z,100971.20
2022-07-29T18:05:38.417Z,100973.09
2022-07-29T18:08:06.621Z,100971.81
2022-07-29T18:10:34.352Z,100974.22
2022-07-29T18:13:04.186Z,100975.59
2022-07-29T18:15:32.100Z,100973.73
2022-07-29T18:17:59.884Z,100973.30
2022-07-29T18:20:28.549Z,100980.50
2022-07-29T18:22:56.436Z,100982.19
2022-07-29T18:25:24.622Z,100977.82
2022-07-29T18:27:56.147Z,100975.77
2022-07-29T18:30:26.772Z,100977.46
2022-07-29T18:33:19.594Z,100974.34
2022-07-29T18:35:46.551Z,100973.70
2022-07-29T18:38:14.480Z,100980.41
2022-07-29T18:40:42.562Z,100978.04
2022-07-29T18:43:10.436Z,100980.43
2022-07-29T18:45:39.602Z,100984.45
2022-07-29T18:48:12.904Z,100987.90
2022-07-29T18:50:42.274Z,100991.53
2022-07-29T18:53:10.359Z,100991.65
2022-07-29T18:55:38.222Z,100995.84
2022-07-29T18:58:06.124Z,100992.89
2022-07-29T19:00:33.828Z,100989.02
2022-07-29T19:03:03.411Z,100991.92
2022-07-29T19:05:31.458Z,100990.41
2022-07-29T19:07:59.698Z,100995.12
2022-07-29T19:10:27.723Z,100996.79
2022-07-29T19:12:56.948Z,100996.19
2022-07-29T19:15:25.369Z,100999.27
2022-07-29T19:17:55.569Z,101002.55
2022-07-29T19:20:25.740Z,101008.10
2022-07-29T19:22:53.623Z,101009.80
2022-07-29T19:25:23.121Z,101010.04
2022-07-29T19:27:50.873Z,101008.52
2022-07-29T19:30:18.689Z,101012.85
2022-07-29T19:32:46.646Z,101013.79
2022-07-29T19:35:33.071Z,101014.38
2022-07-29T19:38:02.388Z,101012.44
2022-07-29T19:40:31.751Z,101009.83
2022-07-29T19:43:00.732Z,101005.27
2022-07-29T19:45:29.302Z,100999.84
2022-07-29T19:48:01.312Z,101000.59
2022-07-29T19:50:30.005Z,101007.23
2022-07-29T19:52:58.427Z,101009.23
2022-07-29T19:55:27.213Z,101009.97
2022-07-29T19:57:55.400Z,101008.44
2022-07-29T20:00:24.289Z,101012.41
2022-07-29T20:02:52.651Z,101010.14
2022-07-29T20:05:20.669Z,101010.00
2022-07-29T20:07:48.436Z,101007.74
2022-07-29T20:10:16.465Z,101005.67
2022-07-29T20:12:44.270Z,101008.02
2022-07-29T20:15:16.443Z,101007.55
2022-07-29T20:17:44.638Z,101006.69
2022-07-29T20:20:12.554Z,101006.90
2022-07-29T20:22:40.344Z,101003.18
2022-07-29T20:25:13.460Z,101003.76
2022-07-29T20:27:41.151Z,100999.00
2022-07-29T20:30:09.605Z,100997.26
2022-07-29T20:32:40.564Z,100994.99
2022-07-29T20:35:10.004Z,100995.56
2022-07-29T20:37:55.770Z,100993.98
2022-07-29T20:40:26.262Z,100991.71
2022-07-29T20:42:55.620Z,100994.77
2022-07-29T20:45:23.878Z,100997.98
2022-07-29T20:47:52.217Z,100998.74
2022-07-29T20:50:23.906Z,100999.13
2022-07-29T20:52:52.803Z,101004.63
2022-07-29T20:55:21.583Z,101005.15
2022-07-29T20:57:49.611Z,101004.27
2022-07-29T21:00:18.137Z,101006.98
2022-07-29T21:02:46.311Z,101011.42
2022-07-29T21:05:14.367Z,101013.56
2022-07-29T21:07:42.110Z,101017.66
2022-07-29T21:10:10.073Z,101016.63
2022-07-29T21:12:38.603Z,101021.59
2022-07-29T21:15:06.936Z,101024.45
2022-07-29T21:17:36.243Z,101025.52
2022-07-29T21:20:06.729Z,101024.64
2022-07-29T21:22:34.625Z,101025.90
2022-07-29T21:25:02.625Z,101024.67
2022-07-29T21:27:49.067Z,101022.21
2022-07-29T21:30:16.936Z,101024.72
2022-07-29T21:32:44.682Z,101022.61
2022-07-29T21:35:22.313Z,101018.70
2022-07-29T21:38:00.292Z,101019.63
2022-07-29T21:40:28.609Z,101015.55
2022-07-29T21:42:56.536Z,101013.23
2022-07-29T21:45:24.336Z,101010.92
2022-07-29T21:47:52.024Z,101010.05
2022-07-29T21:50:19.969Z,101010.77
2022-07-29T21:52:47.680Z,101004.57
2022-07-29T21:55:16.060Z,101004.75
2022-07-29T21:57:46.472Z,101008.13
2022-07-29T22:00:17.450Z,101012.03
2022-07-29T22:02:45.609Z,101012.91
2022-07-29T22:05:14.401Z,101016.29
2022-07-29T22:07:55.584Z,101012.23
2022-07-29T22:10:26.177Z,101009.05
2022-07-29T22:12:56.649Z,101017.52
2022-07-29T22:15:27.202Z,101022.32
2022-07-29T22:17:55.740Z,101023.37
2022-07-29T22:20:24.514Z,101027.06
2022-07-29T22:22:52.514Z,101026.32
2022-07-29T22:25:20.810Z,101023.14
2022-07-29T22:27:48.734Z,101020.84
2022-07-29T22:30:17.137Z,101018.89
2022-07-29T22:32:45.045Z,101024.20
2022-07-29T22:35:12.877Z,101030.02
2022-07-29T22:37:40.755Z,101028.96
2022-07-29T22:40:09.224Z,101027.73
2022-07-29T22:42:40.812Z,101026.12
2022-07-29T22:45:10.447Z,101019.92
2022-07-29T22:47:48.495Z,101021.19
2022-07-29T22:50:17.221Z,101013.91
2022-07-29T22:52:47.055Z,101010.38
2022-07-29T22:55:15.522Z,101005.59
2022-07-29T22:57:43.357Z,101009.83
2022-07-29T23:00:12.495Z,101010.54
2022-07-29T23:02:41.678Z,101010.69
2022-07-29T23:05:10.666Z,101005.72
2022-07-29T23:07:38.707Z,100998.48
2022-07-29T23:10:07.185Z,100989.26
2022-07-29T23:12:34.966Z,100979.88
2022-07-29T23:15:04.550Z,100977.23
2022-07-29T23:17:36.612Z,100979.34
2022-07-29T23:20:07.844Z,100979.48
2022-07-29T23:22:36.305Z,100983.73
2022-07-29T23:25:06.263Z,100978.75
2022-07-29T23:27:34.117Z,100972.20
2022-07-29T23:30:02.774Z,100963.17
2022-07-29T23:32:30.708Z,100958.56
2022-07-29T23:34:58.390Z,100956.74
2022-07-29T23:37:26.838Z,100959.73
2022-07-29T23:39:55.079Z,100960.08
2022-07-29T23:42:23.238Z,100956.89
2022-07-29T23:44:51.832Z,100951.20
2022-07-29T23:47:19.783Z,100949.24
2022-07-29T23:49:49.942Z,100938.27
2022-07-29T23:52:18.511Z,100938.41
2022-07-29T23:54:46.720Z,100940.36
2022-07-29T23:57:14.895Z,100938.05
2022-07-29T23:59:42.659Z,100932.23
